createdAt,value
2023-05-05T00:00:47.426Z,5.08
2023-05-05T00:01:47.476Z,6.46
2023-05-05T00:02:47.563Z,6.68
2023-05-05T00:03:47.678Z,6.30
2023-05-05T00:04:47.566Z,6.37
2023-05-05T00:05:47.657Z,5.37
2023-05-05T00:06:47.660Z,4.80
2023-05-05T00:07:47.693Z,5.71
2023-05-05T00:08:47.717Z,5.26
2023-05-05T00:09:47.703Z,5.36
2023-05-05T00:10:47.760Z,5.22
2023-05-05T00:11:47.790Z,5.00
2023-05-05T00:12:47.831Z,4.99
2023-05-05T00:13:47.833Z,4.98
2023-05-05T00:14:47.899Z,5.61
2023-05-05T00:15:47.913Z,5.25
2023-05-05T00:16:48.003Z,5.25
2023-05-05T00:17:47.995Z,5.09
2023-05-05T00:18:47.973Z,5.69
2023-05-05T00:19:47.981Z,4.55
2023-05-05T00:20:48.041Z,4.62
2023-05-05T00:21:48.037Z,5.11
2023-05-05T00:22:48.100Z,5.37
2023-05-05T00:23:48.261Z,4.94
2023-05-05T00:24:48.231Z,4.97
2023-05-05T00:25:48.278Z,5.53
2023-05-05T00:26:48.292Z,5.22
2023-05-05T00:27:48.314Z,5.24
2023-05-05T00:28:48.305Z,5.10
2023-05-05T00:29:48.300Z,5.08
2023-05-05T00:30:48.345Z,5.11
2023-05-05T00:31:48.335Z,5.33
2023-05-05T00:32:48.466Z,5.98
2023-05-05T00:33:48.429Z,5.86
2023-05-05T00:34:48.447Z,5.24
2023-05-05T00:35:48.450Z,5.40
2023-05-05T00:36:48.514Z,5.21
2023-05-05T00:37:48.510Z,5.32
2023-05-05T00:38:48.532Z,5.80
2023-05-05T00:39:48.574Z,5.89
2023-05-05T00:40:48.584Z,6.17
2023-05-05T00:41:48.597Z,5.52
2023-05-05T00:42:48.642Z,5.88
2023-05-05T00:43:48.651Z,5.74
2023-05-05T00:44:48.666Z,5.16
2023-05-05T00:45:48.728Z,6.02
2023-05-05T00:46:48.771Z,5.66
2023-05-05T00:47:48.821Z,5.71
2023-05-05T00:48:48.845Z,6.19
2023-05-05T00:49:48.853Z,5.22
2023-05-05T00:50:48.913Z,6.05
2023-05-05T00:51:48.927Z,6.17
2023-05-05T00:52:48.937Z,6.35
2023-05-05T00:53:49.017Z,6.50
2023-05-05T00:54:49.004Z,5.97
2023-05-05T00:55:49.045Z,5.86
2023-05-05T00:56:49.102Z,6.05
2023-05-05T00:57:49.167Z,6.19
2023-05-05T00:58:49.236Z,6.20
2023-05-05T00:59:49.232Z,6.88
2023-05-05T01:00:49.285Z,6.30
2023-05-05T01:01:49.399Z,6.16
2023-05-05T01:02:49.510Z,5.90
2023-05-05T01:03:49.570Z,5.89
2023-05-05T01:04:49.481Z,7.18
2023-05-05T01:05:49.527Z,5.94
2023-05-05T01:06:49.576Z,6.55
2023-05-05T01:07:49.502Z,6.26
2023-05-05T01:08:49.541Z,6.91
2023-05-05T01:09:53.430Z,5.94
2023-05-05T01:10:50.570Z,6.17
2023-05-05T01:11:49.510Z,5.92
2023-05-05T01:12:49.558Z,6.32
2023-05-05T01:13:49.539Z,5.86
2023-05-05T01:14:49.546Z,6.42
2023-05-05T01:15:49.501Z,6.17
2023-05-05T01:16:49.491Z,6.23
2023-05-05T01:17:49.504Z,5.64
2023-05-05T01:18:49.475Z,5.39
2023-05-05T01:19:49.952Z,5.49
2023-05-05T01:20:49.460Z,6.23
2023-05-05T01:21:49.453Z,5.53
2023-05-05T01:22:49.428Z,5.50
2023-05-05T01:23:49.438Z,5.98
2023-05-05T01:24:49.439Z,6.32
2023-05-05T01:25:49.461Z,5.48
2023-05-05T01:26:49.415Z,5.72
2023-05-05T01:27:49.431Z,5.66
2023-05-05T01:28:49.474Z,5.78
2023-05-05T01:29:49.476Z,5.74
2023-05-05T01:30:49.521Z,6.14
2023-05-05T01:31:49.623Z,6.31
2023-05-05T01:32:49.664Z,6.18
2023-05-05T01:33:49.589Z,6.56
2023-05-05T01:34:49.649Z,6.30
2023-05-05T01:35:49.681Z,6.74
2023-05-05T01:36:49.701Z,6.62
2023-05-05T01:37:49.733Z,7.21
2023-05-05T01:38:49.810Z,6.31
2023-05-05T01:39:49.794Z,6.22
2023-05-05T01:40:49.816Z,6.20
2023-05-05T01:41:49.845Z,6.23
2023-05-05T01:42:49.874Z,6.09
2023-05-05T01:43:52.133Z,6.94
2023-05-05T01:44:49.958Z,6.40
2023-05-05T01:45:50.089Z,6.43
2023-05-05T01:46:50.070Z,6.50
2023-05-05T01:47:50.171Z,6.33
2023-05-05T01:48:50.149Z,7.06
2023-05-05T01:49:50.195Z,6.51
2023-05-05T01:50:50.200Z,6.27
2023-05-05T01:51:50.223Z,6.58
2023-05-05T01:52:50.263Z,6.10
2023-05-05T01:53:50.259Z,6.30
2023-05-05T01:54:50.580Z,6.64
2023-05-05T01:55:50.296Z,5.85
2023-05-05T01:56:50.273Z,6.11
2023-05-05T01:57:50.351Z,6.71
2023-05-05T01:58:50.364Z,6.77
2023-05-05T01:59:50.399Z,7.10
2023-05-05T02:00:50.422Z,6.23
2023-05-05T02:01:50.453Z,5.94
2023-05-05T02:02:50.537Z,6.33
2023-05-05T02:03:50.496Z,5.97
2023-05-05T02:04:50.514Z,6.77
2023-05-05T02:05:50.547Z,6.16
2023-05-05T02:06:50.556Z,6.27
2023-05-05T02:07:50.615Z,6.04
2023-05-05T02:08:50.625Z,6.09
2023-05-05T02:09:50.679Z,5.49
2023-05-05T02:10:50.685Z,6.25
2023-05-05T02:11:50.702Z,6.18
2023-05-05T02:12:50.786Z,6.27
2023-05-05T02:13:50.791Z,6.20
2023-05-05T02:14:50.812Z,5.57
2023-05-05T02:15:50.843Z,6.64
2023-05-05T02:16:50.828Z,7.09
2023-05-05T02:17:50.908Z,6.27
2023-05-05T02:18:50.894Z,7.10
2023-05-05T02:19:50.950Z,6.36
2023-05-05T02:20:50.979Z,6.99
2023-05-05T02:21:51.019Z,6.61
2023-05-05T02:22:51.039Z,6.51
2023-05-05T02:23:51.082Z,6.68
2023-05-05T02:24:51.083Z,7.47
2023-05-05T02:25:51.158Z,6.94
2023-05-05T02:26:51.233Z,7.09
2023-05-05T02:28:55.715Z,6.40
2023-05-05T02:29:55.737Z,7.39
2023-05-05T02:30:55.781Z,6.57
2023-05-05T02:31:55.685Z,7.18
2023-05-05T02:32:55.749Z,7.15
2023-05-05T02:33:55.724Z,7.66
2023-05-05T02:34:55.679Z,7.18
2023-05-05T02:35:55.698Z,6.34
2023-05-05T02:36:55.673Z,6.75
2023-05-05T02:37:55.642Z,6.28
2023-05-05T02:38:55.641Z,6.78
2023-05-05T02:39:55.654Z,6.66
2023-05-05T02:40:55.658Z,6.80
2023-05-05T02:41:55.672Z,7.28
2023-05-05T02:42:55.638Z,6.61
2023-05-05T02:43:55.649Z,6.73
2023-05-05T02:44:55.618Z,6.08
2023-05-05T02:45:55.635Z,5.92
2023-05-05T02:46:55.674Z,6.99
2023-05-05T02:47:55.619Z,6.93
2023-05-05T02:48:55.568Z,6.40
2023-05-05T02:49:55.614Z,6.05
2023-05-05T02:50:55.577Z,6.54
2023-05-05T02:51:55.589Z,6.73
2023-05-05T02:52:55.546Z,7.02
2023-05-05T02:53:55.535Z,6.83
2023-05-05T02:54:55.546Z,6.51
2023-05-05T02:55:56.004Z,5.33
2023-05-05T02:56:55.522Z,6.38
2023-05-05T02:57:55.519Z,5.99
2023-05-05T02:58:55.522Z,5.10
2023-05-05T02:59:55.534Z,6.04
2023-05-05T03:00:55.496Z,5.37
2023-05-05T03:01:55.587Z,7.16
2023-05-05T03:02:55.505Z,6.65
2023-05-05T03:03:55.675Z,6.73
2023-05-05T03:04:55.469Z,7.21
2023-05-05T03:05:55.486Z,7.02
2023-05-05T03:06:55.492Z,7.19
2023-05-05T03:07:55.488Z,6.63
2023-05-05T03:08:55.439Z,7.46
2023-05-05T03:09:55.439Z,6.77
2023-05-05T03:10:55.433Z,6.43
2023-05-05T03:11:55.436Z,6.98
2023-05-05T03:12:55.438Z,7.25
2023-05-05T03:13:55.434Z,7.33
2023-05-05T03:14:55.430Z,7.33
2023-05-05T03:15:55.424Z,6.74
2023-05-05T03:16:55.414Z,6.71
2023-05-05T03:17:55.417Z,6.08
2023-05-05T03:18:55.374Z,6.70
2023-05-05T03:19:55.337Z,7.23
2023-05-05T03:20:55.351Z,7.06
2023-05-05T03:21:55.384Z,6.75
2023-05-05T03:22:55.318Z,6.56
2023-05-05T03:23:55.327Z,6.49
2023-05-05T03:24:55.309Z,7.30
2023-05-05T03:25:55.356Z,6.19
2023-05-05T03:26:55.322Z,7.04
2023-05-05T03:27:55.328Z,6.90
2023-05-05T03:28:55.285Z,6.81
2023-05-05T03:29:55.288Z,7.44
2023-05-05T03:30:55.268Z,7.04
2023-05-05T03:31:55.264Z,6.65
2023-05-05T03:32:55.406Z,6.70
2023-05-05T03:33:55.366Z,6.90
2023-05-05T03:34:55.396Z,6.89
2023-05-05T03:35:55.371Z,6.24
2023-05-05T03:36:55.422Z,6.65
2023-05-05T03:37:55.424Z,7.65
2023-05-05T03:38:55.425Z,6.85
2023-05-05T03:39:55.478Z,6.98
2023-05-05T03:40:55.499Z,6.96
2023-05-05T03:41:55.547Z,7.48
2023-05-05T03:42:55.595Z,7.51
2023-05-05T03:43:55.632Z,7.40
2023-05-05T03:44:55.652Z,6.91
2023-05-05T03:45:55.686Z,6.72
2023-05-05T03:46:55.703Z,6.37
2023-05-05T03:47:55.725Z,6.71
2023-05-05T03:48:55.709Z,6.77
2023-05-05T03:49:55.756Z,7.30
2023-05-05T03:50:57.414Z,6.61
2023-05-05T03:51:55.802Z,6.15
2023-05-05T03:52:55.882Z,6.73
2023-05-05T03:53:55.964Z,6.75
2023-05-05T03:54:55.920Z,6.96
2023-05-05T03:55:56.030Z,6.79
2023-05-05T03:56:56.021Z,7.30
2023-05-05T03:57:56.035Z,6.97
2023-05-05T03:58:56.088Z,6.75
2023-05-05T03:59:56.094Z,6.77
2023-05-05T04:00:56.100Z,6.36
2023-05-05T04:01:56.147Z,6.69
2023-05-05T04:02:56.248Z,7.83
2023-05-05T04:03:56.313Z,6.53
2023-05-05T04:04:56.220Z,6.67
2023-05-05T04:05:56.297Z,7.48
2023-05-05T04:06:56.324Z,6.99
2023-05-05T04:07:56.359Z,6.61
2023-05-05T04:08:56.410Z,6.23
2023-05-05T04:09:56.424Z,7.28
2023-05-05T04:10:56.471Z,6.60
2023-05-05T04:11:56.480Z,6.99
2023-05-05T04:12:56.675Z,7.13
2023-05-05T04:13:56.570Z,8.34
2023-05-05T04:14:56.633Z,7.65
2023-05-05T04:15:56.693Z,6.17
2023-05-05T04:16:56.670Z,6.76
2023-05-05T04:17:56.784Z,7.03
2023-05-05T04:18:56.779Z,7.53
2023-05-05T04:19:56.729Z,6.12
2023-05-05T04:20:56.749Z,6.67
2023-05-05T04:21:56.775Z,6.66
2023-05-05T04:22:56.817Z,7.05
2023-05-05T04:23:56.817Z,6.45
2023-05-05T04:24:56.855Z,6.72
2023-05-05T04:25:56.945Z,7.31
2023-05-05T04:26:56.930Z,6.45
2023-05-05T04:27:56.957Z,6.81
2023-05-05T04:28:57.023Z,6.99
2023-05-05T04:29:57.012Z,6.56
2023-05-05T04:30:57.099Z,6.59
2023-05-05T04:31:57.140Z,7.11
2023-05-05T04:32:57.164Z,7.06
2023-05-05T04:33:57.157Z,7.51
2023-05-05T04:34:57.147Z,7.43
2023-05-05T04:35:57.248Z,6.27
2023-05-05T04:36:57.261Z,6.61
2023-05-05T04:37:57.297Z,7.04
2023-05-05T04:38:57.415Z,7.13
2023-05-05T04:39:57.389Z,6.67
2023-05-05T04:40:57.474Z,6.32
2023-05-05T04:41:57.460Z,7.35
2023-05-05T04:42:57.495Z,6.55
2023-05-05T04:43:57.517Z,6.90
2023-05-05T04:44:57.500Z,6.63
2023-05-05T04:45:57.603Z,7.84
2023-05-05T04:46:57.731Z,6.98
2023-05-05T04:47:57.605Z,7.15
2023-05-05T04:48:57.610Z,7.01
2023-05-05T04:49:57.666Z,6.88
2023-05-05T04:50:57.671Z,6.95
2023-05-05T04:51:57.703Z,7.27
2023-05-05T04:52:57.734Z,6.96
2023-05-05T04:53:57.753Z,7.27
2023-05-05T04:54:57.796Z,6.79
2023-05-05T04:55:57.858Z,7.20
2023-05-05T04:56:57.878Z,6.84
2023-05-05T04:57:57.942Z,8.07
2023-05-05T04:58:57.977Z,6.42
2023-05-05T04:59:58.035Z,7.38
2023-05-05T05:00:58.100Z,6.28
2023-05-05T05:01:58.161Z,6.54
2023-05-05T05:02:58.279Z,6.88
2023-05-05T05:03:58.187Z,7.92
2023-05-05T05:04:58.224Z,7.31
2023-05-05T05:05:58.300Z,7.67
2023-05-05T05:06:59.300Z,6.85
2023-05-05T05:07:58.341Z,7.08
2023-05-05T05:08:58.321Z,7.90
2023-05-05T05:09:58.364Z,7.23
2023-05-05T05:10:58.425Z,7.12
2023-05-05T05:11:58.558Z,7.11
2023-05-05T05:12:58.484Z,7.35
2023-05-05T05:13:58.571Z,7.57
2023-05-05T05:14:58.588Z,7.23
2023-05-05T05:15:58.753Z,7.13
2023-05-05T05:16:58.677Z,8.05
2023-05-05T05:17:58.737Z,7.84
2023-05-05T05:19:00.245Z,8.92
2023-05-05T05:19:58.704Z,8.63
2023-05-05T05:20:58.707Z,8.45
2023-05-05T05:21:58.723Z,8.12
2023-05-05T05:22:58.654Z,7.89
2023-05-05T05:23:58.719Z,8.62
2023-05-05T05:24:58.719Z,7.99
2023-05-05T05:25:58.673Z,8.27
2023-05-05T05:26:58.739Z,8.72
2023-05-05T05:28:09.454Z,7.76
2023-05-05T05:28:59.648Z,8.12
2023-05-05T05:29:58.631Z,7.38
2023-05-05T05:30:58.610Z,8.23
2023-05-05T05:31:58.661Z,7.52
2023-05-05T05:32:58.660Z,8.98
2023-05-05T05:33:58.584Z,8.00
2023-05-05T05:34:58.598Z,7.66
2023-05-05T05:35:58.606Z,8.03
2023-05-05T05:36:58.609Z,9.02
2023-05-05T05:37:58.565Z,8.05
2023-05-05T05:38:58.573Z,8.01
2023-05-05T05:39:58.574Z,8.56
2023-05-05T05:40:58.581Z,8.00
2023-05-05T05:41:58.584Z,7.49
2023-05-05T05:42:58.516Z,7.34
2023-05-05T05:43:58.520Z,8.02
2023-05-05T05:44:58.550Z,6.48
2023-05-05T05:45:58.611Z,7.64
2023-05-05T05:46:58.582Z,7.92
2023-05-05T05:47:58.674Z,8.74
2023-05-05T05:48:58.705Z,7.98
2023-05-05T05:49:58.744Z,7.15
2023-05-05T05:50:58.796Z,7.43
2023-05-05T05:51:58.897Z,7.30
2023-05-05T05:52:58.758Z,7.39
2023-05-05T05:53:58.954Z,6.99
2023-05-05T05:54:58.818Z,6.38
2023-05-05T05:55:58.905Z,7.31
2023-05-05T05:56:58.979Z,7.02
2023-05-05T05:57:58.948Z,6.49
2023-05-05T05:58:59.015Z,6.61
2023-05-05T06:00:01.616Z,6.12
2023-05-05T06:00:59.129Z,6.90
2023-05-05T06:01:59.088Z,6.26
2023-05-05T06:02:59.111Z,6.84
2023-05-05T06:03:59.124Z,7.02
2023-05-05T06:04:59.010Z,6.20
2023-05-05T06:05:59.068Z,6.00
2023-05-05T06:06:59.012Z,6.14
2023-05-05T06:07:59.011Z,6.41
2023-05-05T06:08:59.067Z,6.72
2023-05-05T06:10:01.393Z,5.86
2023-05-05T06:11:00.008Z,5.61
2023-05-05T06:11:59.047Z,6.39
2023-05-05T06:12:59.050Z,6.12
2023-05-05T06:13:59.000Z,5.94
2023-05-05T06:14:58.950Z,5.56
2023-05-05T06:15:59.478Z,6.30
2023-05-05T06:16:58.970Z,5.34
2023-05-05T06:17:58.968Z,5.51
2023-05-05T06:18:58.926Z,6.91
2023-05-05T06:19:58.931Z,5.77
2023-05-05T06:20:58.905Z,6.23
2023-05-05T06:21:58.957Z,5.41
2023-05-05T06:22:58.956Z,5.69
2023-05-05T06:23:58.966Z,6.92
2023-05-05T06:24:59.035Z,5.61
2023-05-05T06:25:59.815Z,6.13
2023-05-05T06:27:00.716Z,5.97
2023-05-05T06:27:59.278Z,5.15
2023-05-05T06:28:59.260Z,5.03
2023-05-05T06:29:59.187Z,4.71
2023-05-05T06:30:59.563Z,4.67
2023-05-05T06:31:59.365Z,4.89
2023-05-05T06:32:59.441Z,5.02
2023-05-05T06:33:59.369Z,4.77
2023-05-05T06:34:59.464Z,4.96
2023-05-05T06:35:59.394Z,4.83
2023-05-05T06:36:59.461Z,4.70
2023-05-05T06:37:59.468Z,4.68
2023-05-05T06:38:59.400Z,4.85
2023-05-05T06:39:59.461Z,5.47
2023-05-05T06:40:59.653Z,5.09
2023-05-05T06:41:59.531Z,4.61
2023-05-05T06:42:59.552Z,5.16
2023-05-05T06:43:59.582Z,4.43
2023-05-05T06:44:59.734Z,4.20
2023-05-05T06:45:59.737Z,4.20
2023-05-05T06:46:59.918Z,4.23
2023-05-05T06:47:59.709Z,4.30
2023-05-05T06:48:59.701Z,4.33
2023-05-05T06:49:59.792Z,3.65
2023-05-05T06:50:59.778Z,4.36
2023-05-05T06:51:59.873Z,5.06
2023-05-05T06:52:59.846Z,4.13
2023-05-05T06:53:59.844Z,3.99
2023-05-05T06:54:59.901Z,4.51
2023-05-05T06:55:59.896Z,4.06
2023-05-05T06:56:59.990Z,3.72
2023-05-05T06:58:00.049Z,4.03
2023-05-05T06:59:00.023Z,3.30
2023-05-05T07:00:00.127Z,3.54
2023-05-05T07:01:00.203Z,3.52
2023-05-05T07:02:00.179Z,3.41
2023-05-05T07:03:00.316Z,2.43
2023-05-05T07:04:00.230Z,3.87
2023-05-05T07:05:00.188Z,2.59
2023-05-05T07:06:00.241Z,2.74
2023-05-05T07:07:00.441Z,2.86
2023-05-05T07:08:00.387Z,3.86
2023-05-05T07:09:00.369Z,3.08
2023-05-05T07:10:00.382Z,3.21
2023-05-05T07:11:00.443Z,2.96
2023-05-05T07:12:00.485Z,2.70
2023-05-05T07:13:00.505Z,3.20
2023-05-05T07:14:00.496Z,2.82
2023-05-05T07:15:03.218Z,2.75
2023-05-05T07:16:01.492Z,2.77
2023-05-05T07:17:00.601Z,2.72
2023-05-05T07:18:00.636Z,2.86
2023-05-05T07:19:00.484Z,2.73
2023-05-05T07:20:00.518Z,2.69
2023-05-05T07:21:00.475Z,2.59
2023-05-05T07:22:00.511Z,2.68
2023-05-05T07:23:00.516Z,2.91
2023-05-05T07:24:00.724Z,2.98
2023-05-05T07:25:00.465Z,2.88
2023-05-05T07:26:00.424Z,2.75
2023-05-05T07:27:00.478Z,3.11
2023-05-05T07:28:00.414Z,3.08
2023-05-05T07:29:00.430Z,2.63
2023-05-05T07:30:00.497Z,2.99
2023-05-05T07:31:00.512Z,2.67
2023-05-05T07:32:00.553Z,2.80
2023-05-05T07:33:00.604Z,2.75
2023-05-05T07:34:00.594Z,2.87
2023-05-05T07:35:00.633Z,2.69
2023-05-05T07:36:00.682Z,2.49
2023-05-05T07:37:00.927Z,2.65
2023-05-05T07:38:00.670Z,2.17
2023-05-05T07:39:00.692Z,2.46
2023-05-05T07:40:00.762Z,2.66
2023-05-05T07:41:00.754Z,2.60
2023-05-05T07:42:00.924Z,2.39
2023-05-05T07:43:00.833Z,2.61
2023-05-05T07:44:00.793Z,2.53
2023-05-05T07:45:00.813Z,2.79
2023-05-05T07:46:00.844Z,3.00
2023-05-05T07:47:00.947Z,2.24
2023-05-05T07:48:00.953Z,2.25
2023-05-05T07:49:00.960Z,2.52
2023-05-05T07:50:00.941Z,2.96
2023-05-05T07:51:00.972Z,2.23
2023-05-05T07:52:01.441Z,3.02
2023-05-05T07:53:10.762Z,3.19
2023-05-05T07:54:02.001Z,2.06
2023-05-05T07:55:01.002Z,2.18
2023-05-05T07:56:01.088Z,2.65
2023-05-05T07:57:00.992Z,2.61
2023-05-05T07:58:01.004Z,2.67
2023-05-05T07:59:00.970Z,2.43
2023-05-05T08:00:01.069Z,2.58
2023-05-05T08:01:00.967Z,2.27
2023-05-05T08:02:00.975Z,2.39
2023-05-05T08:03:01.072Z,1.87
2023-05-05T08:04:00.968Z,2.40
2023-05-05T08:05:00.955Z,2.04
2023-05-05T08:06:00.888Z,2.71
2023-05-05T08:07:00.977Z,1.99
2023-05-05T08:08:00.906Z,2.63
2023-05-05T08:09:00.948Z,2.52
2023-05-05T08:10:00.930Z,2.27
2023-05-05T08:11:00.952Z,2.57
2023-05-05T08:12:01.076Z,1.80
2023-05-05T08:13:01.062Z,2.55
2023-05-05T08:14:01.060Z,1.94
2023-05-05T08:15:01.131Z,2.84
2023-05-05T08:16:01.288Z,2.42
2023-05-05T08:17:01.238Z,2.42
2023-05-05T08:18:01.205Z,2.78
2023-05-05T08:19:01.273Z,2.49
2023-05-05T08:20:01.279Z,2.90
2023-05-05T08:21:01.271Z,2.24
2023-05-05T08:22:01.680Z,2.34
2023-05-05T08:23:01.357Z,2.76
2023-05-05T08:24:01.455Z,2.11
2023-05-05T08:25:01.397Z,2.53
2023-05-05T08:26:01.448Z,3.04
2023-05-05T08:27:01.463Z,2.58
2023-05-05T08:28:01.571Z,2.08
2023-05-05T08:29:01.529Z,2.28
2023-05-05T08:30:01.769Z,2.32
2023-05-05T08:31:01.648Z,2.25
2023-05-05T08:32:02.024Z,2.46
2023-05-05T08:33:01.722Z,2.58
2023-05-05T08:34:01.672Z,2.12
2023-05-05T08:35:01.716Z,2.32
2023-05-05T08:36:01.726Z,1.86
2023-05-05T08:37:01.763Z,2.52
2023-05-05T08:38:01.988Z,2.59
2023-05-05T08:39:01.839Z,2.13
2023-05-05T08:40:01.845Z,2.16
2023-05-05T08:41:01.859Z,2.13
2023-05-05T08:42:09.954Z,2.23
2023-05-05T08:43:01.885Z,2.64
2023-05-05T08:44:01.946Z,2.02
2023-05-05T08:45:01.879Z,2.55
2023-05-05T08:46:01.856Z,2.31
2023-05-05T08:47:01.997Z,2.46
2023-05-05T08:48:01.927Z,2.38
2023-05-05T08:49:01.973Z,2.17
2023-05-05T08:50:01.916Z,2.68
2023-05-05T08:51:03.994Z,1.89
2023-05-05T08:52:01.821Z,2.04
2023-05-05T08:53:01.846Z,2.18
2023-05-05T08:54:01.792Z,2.20
2023-05-05T08:55:01.853Z,2.34
2023-05-05T08:56:01.820Z,2.65
2023-05-05T08:57:01.843Z,2.41
2023-05-05T08:58:01.832Z,2.63
2023-05-05T08:59:01.789Z,2.37
2023-05-05T09:00:01.856Z,2.20
2023-05-05T09:01:01.845Z,2.84
2023-05-05T09:02:01.831Z,2.75
2023-05-05T09:03:01.897Z,3.01
2023-05-05T09:04:01.767Z,2.46
2023-05-05T09:05:01.754Z,2.18
2023-05-05T09:06:01.715Z,2.11
2023-05-05T09:07:01.738Z,2.47
2023-05-05T09:08:01.750Z,2.21
2023-05-05T09:09:01.706Z,2.79
2023-05-05T09:10:01.702Z,2.54
2023-05-05T09:11:01.700Z,2.45
2023-05-05T09:12:01.707Z,2.47
2023-05-05T09:13:01.737Z,2.36
2023-05-05T09:14:01.713Z,3.04
2023-05-05T09:15:01.705Z,3.01
2023-05-05T09:16:01.709Z,2.58
2023-05-05T09:17:01.745Z,2.73
2023-05-05T09:18:01.725Z,2.60
2023-05-05T09:19:01.653Z,2.52
2023-05-05T09:20:01.646Z,3.40
2023-05-05T09:21:01.634Z,2.59
2023-05-05T09:22:01.652Z,2.41
2023-05-05T09:23:01.759Z,2.43
2023-05-05T09:24:07.777Z,2.58
2023-05-05T09:25:02.663Z,2.21
2023-05-05T09:26:01.659Z,2.38
2023-05-05T09:27:01.641Z,2.23
2023-05-05T09:28:01.981Z,2.31
2023-05-05T09:29:01.663Z,2.64
2023-05-05T09:31:09.294Z,2.48
2023-05-05T09:32:01.612Z,3.26
2023-05-05T09:33:01.650Z,2.76
2023-05-05T09:34:01.556Z,3.12
2023-05-05T09:35:01.619Z,2.57
2023-05-05T09:36:01.584Z,2.44
2023-05-05T09:37:01.543Z,2.38
2023-05-05T09:38:01.537Z,3.10
2023-05-05T09:39:01.546Z,2.33
2023-05-05T09:40:01.561Z,2.72
2023-05-05T09:41:01.544Z,2.63
2023-05-05T09:42:01.566Z,2.86
2023-05-05T09:43:02.223Z,2.48
2023-05-05T09:44:01.605Z,2.76
2023-05-05T09:45:01.548Z,2.83
2023-05-05T09:46:01.551Z,3.00
2023-05-05T09:47:01.593Z,2.54
2023-05-05T09:48:01.606Z,2.20
2023-05-05T09:49:01.508Z,2.63
2023-05-05T09:50:01.526Z,2.96
2023-05-05T09:51:01.508Z,2.89
2023-05-05T09:52:01.599Z,2.58
2023-05-05T09:53:01.576Z,2.43
2023-05-05T09:54:01.641Z,2.51
2023-05-05T09:55:01.637Z,1.96
2023-05-05T09:56:01.659Z,2.63
2023-05-05T09:57:01.657Z,2.85
2023-05-05T09:58:02.075Z,2.81
2023-05-05T09:59:01.684Z,2.55
2023-05-05T10:00:01.797Z,2.61
2023-05-05T10:01:01.766Z,2.56
2023-05-05T10:02:01.860Z,2.81
2023-05-05T10:03:01.929Z,2.88
2023-05-05T10:04:01.795Z,2.73
2023-05-05T10:05:02.539Z,2.58
2023-05-05T10:06:01.822Z,2.27
2023-05-05T10:07:01.774Z,2.76
2023-05-05T10:08:02.037Z,2.84
2023-05-05T10:09:01.787Z,2.41
2023-05-05T10:10:01.764Z,2.50
2023-05-05T10:11:01.718Z,2.47
2023-05-05T10:12:01.760Z,4.69
2023-05-05T10:13:01.780Z,2.77
2023-05-05T10:14:01.754Z,3.09
2023-05-05T10:15:01.763Z,3.81
2023-05-05T10:16:01.796Z,2.48
2023-05-05T10:17:01.772Z,2.51
2023-05-05T10:18:07.707Z,2.99
2023-05-05T10:19:02.813Z,3.05
2023-05-05T10:20:02.196Z,3.07
2023-05-05T10:21:01.805Z,2.63
2023-05-05T10:22:01.810Z,3.87
2023-05-05T10:23:01.792Z,2.85
2023-05-05T10:24:01.782Z,4.00
2023-05-05T10:25:01.784Z,4.27
2023-05-05T10:26:01.795Z,3.58
2023-05-05T10:27:01.726Z,2.96
2023-05-05T10:28:01.758Z,3.52
2023-05-05T10:29:01.771Z,3.53
2023-05-05T10:30:01.767Z,3.10
2023-05-05T10:31:02.159Z,3.63
2023-05-05T10:32:02.691Z,3.69
2023-05-05T10:33:22.226Z,2.91
2023-05-05T10:34:02.908Z,2.77
2023-05-05T10:35:01.832Z,3.32
2023-05-05T10:36:01.765Z,3.12
2023-05-05T10:37:02.607Z,2.31
2023-05-05T10:38:01.780Z,3.28
2023-05-05T10:39:01.715Z,3.05
2023-05-05T10:40:01.785Z,2.74
2023-05-05T10:41:01.657Z,3.26
2023-05-05T10:42:01.674Z,2.82
2023-05-05T10:43:01.657Z,3.20
2023-05-05T10:44:04.306Z,3.00
2023-05-05T10:45:01.672Z,2.81
2023-05-05T10:46:01.709Z,3.15
2023-05-05T10:47:01.639Z,3.42
2023-05-05T10:48:01.809Z,3.15
2023-05-05T10:49:01.726Z,3.19
2023-05-05T10:50:01.648Z,3.39
2023-05-05T10:51:01.694Z,3.18
2023-05-05T10:52:01.641Z,3.15
2023-05-05T10:53:01.624Z,3.65
2023-05-05T10:54:01.645Z,3.23
2023-05-05T10:55:01.588Z,3.33
2023-05-05T10:56:01.608Z,2.89
2023-05-05T10:57:01.560Z,3.30
2023-05-05T10:58:01.616Z,3.11
2023-05-05T10:59:01.571Z,3.06
2023-05-05T11:00:01.577Z,3.07
2023-05-05T11:01:01.617Z,3.40
2023-05-05T11:02:01.592Z,2.97
2023-05-05T11:03:01.599Z,3.46
2023-05-05T11:04:01.575Z,3.14
2023-05-05T11:05:01.548Z,2.96
2023-05-05T11:06:01.611Z,3.13
2023-05-05T11:07:01.523Z,3.23
2023-05-05T11:08:01.507Z,2.49
2023-05-05T11:09:01.523Z,3.32
2023-05-05T11:10:01.786Z,3.71
2023-05-05T11:11:01.508Z,3.17
2023-05-05T11:12:01.453Z,2.99
2023-05-05T11:13:01.546Z,3.47
2023-05-05T11:14:01.475Z,3.30
2023-05-05T11:15:01.458Z,3.93
2023-05-05T11:16:01.413Z,3.65
2023-05-05T11:17:01.510Z,3.84
2023-05-05T11:18:03.927Z,3.52
2023-05-05T11:19:01.453Z,3.59
2023-05-05T11:20:01.407Z,3.46
2023-05-05T11:21:01.411Z,3.58
2023-05-05T11:22:01.417Z,3.74
2023-05-05T11:23:01.414Z,3.59
2023-05-05T11:24:01.373Z,3.60
2023-05-05T11:25:01.339Z,3.93
2023-05-05T11:26:01.348Z,2.79
2023-05-05T11:27:01.333Z,3.54
2023-05-05T11:28:01.562Z,3.22
2023-05-05T11:29:01.502Z,3.41
2023-05-05T11:30:01.346Z,3.33
2023-05-05T11:31:01.749Z,3.26
2023-05-05T11:32:01.381Z,2.88
2023-05-05T11:33:01.652Z,3.10
2023-05-05T11:34:01.381Z,2.52
2023-05-05T11:35:01.396Z,3.20
2023-05-05T11:36:03.419Z,2.89
2023-05-05T11:37:01.324Z,2.78
2023-05-05T11:38:01.603Z,2.52
2023-05-05T11:39:01.333Z,3.01
2023-05-05T11:40:01.385Z,2.84
2023-05-05T11:41:01.270Z,2.44
2023-05-05T11:42:05.380Z,2.99
2023-05-05T11:43:02.603Z,2.95
2023-05-05T11:44:01.242Z,2.89
2023-05-05T11:45:01.245Z,3.18
2023-05-05T11:46:01.220Z,3.19
2023-05-05T11:47:01.244Z,2.96
2023-05-05T11:48:01.242Z,2.74
2023-05-05T11:49:01.239Z,2.90
2023-05-05T11:50:01.210Z,2.40
2023-05-05T11:51:02.359Z,1.97
2023-05-05T11:52:01.189Z,2.84
2023-05-05T11:53:01.168Z,3.09
2023-05-05T11:54:01.175Z,2.80
2023-05-05T11:55:01.192Z,2.73
2023-05-05T11:56:01.203Z,3.36
2023-05-05T11:57:01.167Z,2.66
2023-05-05T11:58:01.205Z,3.56
2023-05-05T11:59:01.261Z,3.23
2023-05-05T12:00:01.293Z,2.79
2023-05-05T12:01:01.316Z,2.60
2023-05-05T12:02:01.332Z,3.17
2023-05-05T12:03:01.483Z,2.64
2023-05-05T12:04:01.986Z,2.28
2023-05-05T12:05:01.428Z,2.79
2023-05-05T12:06:01.449Z,3.02
2023-05-05T12:07:01.463Z,2.42
2023-05-05T12:08:01.478Z,2.42
2023-05-05T12:09:01.532Z,2.13
2023-05-05T12:10:01.717Z,2.41
2023-05-05T12:11:01.616Z,2.39
2023-05-05T12:12:01.604Z,2.02
2023-05-05T12:13:01.624Z,2.44
2023-05-05T12:14:01.643Z,1.96
2023-05-05T12:15:01.656Z,2.25
2023-05-05T12:16:01.689Z,2.22
2023-05-05T12:17:01.722Z,2.07
2023-05-05T12:18:03.191Z,2.45
2023-05-05T12:19:01.790Z,2.09
2023-05-05T12:20:01.872Z,2.16
2023-05-05T12:21:01.922Z,3.08
2023-05-05T12:22:01.911Z,1.92
2023-05-05T12:23:01.952Z,2.09
2023-05-05T12:24:01.958Z,2.19
2023-05-05T12:25:01.930Z,2.67
2023-05-05T12:26:01.937Z,2.44
2023-05-05T12:27:02.084Z,2.53
2023-05-05T12:28:02.005Z,2.63
2023-05-05T12:29:02.066Z,2.63
2023-05-05T12:30:02.148Z,1.97
2023-05-05T12:31:02.156Z,2.58
2023-05-05T12:32:02.171Z,2.03
2023-05-05T12:33:02.180Z,2.86
2023-05-05T12:34:02.168Z,2.35
2023-05-05T12:35:02.223Z,2.37
2023-05-05T12:36:02.231Z,2.06
2023-05-05T12:37:02.242Z,2.33
2023-05-05T12:38:02.286Z,2.15
2023-05-05T12:39:02.362Z,2.00
2023-05-05T12:40:02.355Z,2.19
2023-05-05T12:41:02.380Z,2.02
2023-05-05T12:42:02.425Z,2.30
2023-05-05T12:43:02.400Z,1.79
2023-05-05T12:44:02.473Z,2.31
2023-05-05T12:45:02.474Z,2.45
2023-05-05T12:46:02.577Z,2.48
2023-05-05T12:47:02.597Z,2.54
2023-05-05T12:48:02.695Z,2.06
2023-05-05T12:49:02.671Z,2.15
2023-05-05T12:50:02.673Z,2.71
2023-05-05T12:51:02.720Z,2.19
2023-05-05T12:52:02.698Z,2.44
2023-05-05T12:53:02.726Z,2.29
2023-05-05T12:54:02.770Z,2.59
2023-05-05T12:55:02.786Z,1.88
2023-05-05T12:56:02.853Z,2.16
2023-05-05T12:57:02.865Z,2.58
2023-05-05T12:58:02.861Z,2.04
2023-05-05T12:59:03.017Z,2.42
2023-05-05T13:00:02.928Z,2.84
2023-05-05T13:01:03.015Z,2.54
2023-05-05T13:02:03.008Z,3.17
2023-05-05T13:03:03.019Z,2.86
2023-05-05T13:04:03.054Z,3.00
2023-05-05T13:05:03.057Z,2.29
2023-05-05T13:06:03.094Z,2.01
2023-05-05T13:07:03.084Z,2.21
2023-05-05T13:08:03.190Z,2.60
2023-05-05T13:09:03.218Z,1.77
2023-05-05T13:10:03.194Z,2.81
2023-05-05T13:11:03.187Z,2.60
2023-05-05T13:12:03.254Z,2.24
2023-05-05T13:13:03.338Z,2.66
2023-05-05T13:14:03.284Z,2.14
2023-05-05T13:15:03.310Z,3.08
2023-05-05T13:16:03.395Z,2.67
2023-05-05T13:17:03.340Z,2.87
2023-05-05T13:18:03.466Z,2.28
2023-05-05T13:19:03.471Z,2.43
2023-05-05T13:20:03.433Z,2.23
2023-05-05T13:21:03.493Z,2.50